createdAt,value
2023-05-15T00:01:50.249Z,3.60
2023-05-15T00:06:53.385Z,3.63
2023-05-15T00:11:57.966Z,3.60
2023-05-15T00:17:01.265Z,3.30
2023-05-15T00:22:04.508Z,3.17
2023-05-15T00:27:09.213Z,3.17
2023-05-15T00:32:13.578Z,3.60
2023-05-15T00:37:16.826Z,3.20
2023-05-15T00:42:22.383Z,2.77
2023-05-15T00:47:27.996Z,3.00
2023-05-15T00:52:31.864Z,3.67
2023-05-15T00:57:36.605Z,3.20
2023-05-15T01:02:41.140Z,3.63
2023-05-15T01:07:50.548Z,3.70
2023-05-15T01:12:57.075Z,3.37
2023-05-15T01:18:00.420Z,3.03
2023-05-15T01:23:11.282Z,3.13
2023-05-15T01:28:20.981Z,3.30
2023-05-15T01:33:28.257Z,3.47
2023-05-15T01:38:36.493Z,2.97
2023-05-15T01:43:44.022Z,2.97
2023-05-15T01:48:47.544Z,2.90
2023-05-15T01:53:50.924Z,2.60
2023-05-15T01:59:00.237Z,3.50
2023-05-15T02:04:05.589Z,3.30
2023-05-15T02:09:09.205Z,3.17
2023-05-15T02:14:13.944Z,2.90
2023-05-15T02:19:17.132Z,3.10
2023-05-15T02:24:20.318Z,2.73
2023-05-15T02:29:35.873Z,3.17
2023-05-15T02:34:41.036Z,3.43
2023-05-15T02:39:46.097Z,2.50
2023-05-15T02:44:51.525Z,2.97
2023-05-15T02:49:54.648Z,2.47
2023-05-15T02:54:57.893Z,2.53
2023-05-15T03:00:05.283Z,2.90
2023-05-15T03:05:10.259Z,2.47
2023-05-15T03:10:13.482Z,3.30
2023-05-15T03:15:18.268Z,2.67
2023-05-15T03:20:21.539Z,2.67
2023-05-15T03:25:25.075Z,3.27
2023-05-15T03:30:29.779Z,3.47
2023-05-15T03:35:33.372Z,2.90
2023-05-15T03:40:36.546Z,3.10
2023-05-15T03:45:41.575Z,3.17
2023-05-15T03:50:45.988Z,3.27
2023-05-15T03:55:49.371Z,3.23
2023-05-15T04:00:54.641Z,2.07
2023-05-15T04:05:58.066Z,3.07
2023-05-15T04:11:01.488Z,3.10
2023-05-15T04:16:07.395Z,3.30
2023-05-15T04:21:10.745Z,3.20
2023-05-15T04:26:14.092Z,3.60
2023-05-15T04:31:19.461Z,3.37
2023-05-15T04:36:22.972Z,3.50
2023-05-15T04:41:26.763Z,3.90
2023-05-15T04:46:37.533Z,4.07
2023-05-15T04:51:41.580Z,3.80
2023-05-15T04:56:44.868Z,4.20
2023-05-15T05:01:49.747Z,3.67
2023-05-15T05:06:53.268Z,4.10
2023-05-15T05:11:56.476Z,4.10
2023-05-15T05:17:01.093Z,4.40
2023-05-15T05:22:06.027Z,4.77
2023-05-15T05:27:09.442Z,4.70
2023-05-15T05:32:14.127Z,4.83
2023-05-15T05:37:17.300Z,5.23
2023-05-15T05:42:20.511Z,4.87
2023-05-15T05:47:25.250Z,4.27
2023-05-15T05:52:29.379Z,5.67
2023-05-15T05:57:32.615Z,4.80
2023-05-15T06:02:37.539Z,5.00
2023-05-15T06:07:41.364Z,4.30
2023-05-15T06:12:44.632Z,4.43
2023-05-15T06:17:49.537Z,5.50
2023-05-15T06:22:52.871Z,5.17
2023-05-15T06:27:56.241Z,5.30
2023-05-15T06:33:01.108Z,4.40
2023-05-15T06:38:04.705Z,3.83
2023-05-15T06:43:08.010Z,4.90
2023-05-15T06:48:12.716Z,4.47
2023-05-15T06:53:17.707Z,3.73
2023-05-15T06:58:21.138Z,3.87
2023-05-15T07:03:25.966Z,3.70
2023-05-15T07:08:29.208Z,3.27
2023-05-15T07:13:32.469Z,3.20
2023-05-15T07:18:37.327Z,3.17
2023-05-15T07:23:40.642Z,2.77
2023-05-15T07:28:43.875Z,3.40
2023-05-15T07:33:48.487Z,3.40
2023-05-15T07:38:51.921Z,3.40
2023-05-15T07:43:55.155Z,3.50
2023-05-15T07:48:59.662Z,3.53
2023-05-15T07:54:04.384Z,3.10
2023-05-15T07:59:07.786Z,3.20
2023-05-15T08:04:13.177Z,3.27
2023-05-15T08:09:19.075Z,2.77
2023-05-15T08:14:22.405Z,3.37
2023-05-15T08:19:27.017Z,3.70
2023-05-15T08:24:30.640Z,3.30
2023-05-15T08:29:33.950Z,3.53
2023-05-15T08:34:38.728Z,3.10
2023-05-15T08:39:42.319Z,2.97
2023-05-15T08:44:45.666Z,2.97
2023-05-15T08:49:58.617Z,3.10
2023-05-15T08:55:02.279Z,3.30
2023-05-15T09:00:09.378Z,3.43
2023-05-15T09:05:14.960Z,3.30
2023-05-15T09:10:18.398Z,3.73
2023-05-15T09:15:25.369Z,3.10
2023-05-15T09:20:31.671Z,3.33
2023-05-15T09:25:37.723Z,2.70
2023-05-15T09:30:43.895Z,3.20
2023-05-15T09:35:48.470Z,2.87
2023-05-15T09:40:51.983Z,2.40
2023-05-15T09:45:55.850Z,2.73
2023-05-15T09:51:01.927Z,3.10
2023-05-15T09:56:05.322Z,2.70
2023-05-15T10:01:12.054Z,3.23
2023-05-15T10:06:21.326Z,2.80
2023-05-15T10:11:24.891Z,3.40
2023-05-15T10:16:29.678Z,2.60
2023-05-15T10:21:37.360Z,2.83
2023-05-15T10:26:41.752Z,3.03
2023-05-15T10:31:45.010Z,2.80
2023-05-15T10:36:52.883Z,2.70
2023-05-15T10:41:56.759Z,2.87
2023-05-15T10:47:00.658Z,2.70
2023-05-15T10:52:05.729Z,2.90
2023-05-15T10:57:10.652Z,3.40
2023-05-15T11:02:21.457Z,3.77
2023-05-15T11:07:26.181Z,3.30
2023-05-15T11:12:56.432Z,3.40
2023-05-15T11:18:04.649Z,3.43
2023-05-15T11:23:10.035Z,3.27
2023-05-15T11:28:23.232Z,3.43
2023-05-15T11:33:31.338Z,3.90
2023-05-15T11:38:40.098Z,2.97
2023-05-15T11:43:43.259Z,3.30
2023-05-15T11:48:48.421Z,3.00
2023-05-15T11:53:54.452Z,2.80
2023-05-15T11:58:58.968Z,3.40
2023-05-15T12:04:02.521Z,3.13
2023-05-15T12:09:07.806Z,3.73
2023-05-15T12:14:12.975Z,3.60
2023-05-15T12:19:16.230Z,3.33
2023-05-15T12:24:21.410Z,3.03
2023-05-15T12:29:24.757Z,3.50
2023-05-15T12:34:28.093Z,3.50
2023-05-15T12:39:32.771Z,4.27
2023-05-15T12:44:36.442Z,3.43
2023-05-15T12:49:40.028Z,3.57
2023-05-15T12:54:45.607Z,3.47
2023-05-15T12:59:48.922Z,2.90
2023-05-15T13:04:52.097Z,2.83
2023-05-15T13:10:06.672Z,3.33
2023-05-15T13:15:23.975Z,3.43
2023-05-15T13:20:28.567Z,3.20
2023-05-15T13:25:33.380Z,3.30
2023-05-15T13:30:36.640Z,3.17
2023-05-15T13:35:41.285Z,3.93
2023-05-15T13:40:46.204Z,2.97
2023-05-15T13:45:49.408Z,3.10
2023-05-15T13:50:52.762Z,3.90
2023-05-15T13:55:57.502Z,2.90
2023-05-15T14:01:01.327Z,3.10
2023-05-15T14:06:04.846Z,3.57
2023-05-15T14:11:09.672Z,3.30
2023-05-15T14:16:12.975Z,3.40
2023-05-15T14:21:16.527Z,2.80
2023-05-15T14:26:22.043Z,3.00
2023-05-15T14:31:25.678Z,3.60
2023-05-15T14:36:29.020Z,2.70
2023-05-15T14:41:33.766Z,3.47
2023-05-15T14:46:38.261Z,2.97
2023-05-15T14:51:43.274Z,2.83
2023-05-15T14:56:49.660Z,2.60
2023-05-15T15:01:53.269Z,2.50
2023-05-15T15:06:57.426Z,3.20
2023-05-15T15:12:02.868Z,2.60
2023-05-15T15:17:06.625Z,2.67
2023-05-15T15:22:10.251Z,2.40
2023-05-15T15:27:15.356Z,2.70
2023-05-15T15:32:19.184Z,2.80
2023-05-15T15:37:23.182Z,2.50
2023-05-15T15:42:29.050Z,2.63
2023-05-15T15:47:32.703Z,3.00
2023-05-15T15:52:38.456Z,3.37
2023-05-15T15:57:43.945Z,3.30
2023-05-15T16:02:47.096Z,3.07
2023-05-15T16:07:50.410Z,3.93
2023-05-15T16:12:55.101Z,3.07
2023-05-15T16:17:59.470Z,2.53
2023-05-15T16:23:03.019Z,2.40
2023-05-15T16:28:08.721Z,2.73
2023-05-15T16:33:13.255Z,3.17
2023-05-15T16:38:18.158Z,3.50
2023-05-15T16:43:22.799Z,3.53
2023-05-15T16:48:26.354Z,7.13
2023-05-15T16:53:30.131Z,4.10
2023-05-15T16:58:34.780Z,3.53
2023-05-15T17:03:38.106Z,3.30
2023-05-15T17:08:42.699Z,3.50
2023-05-15T17:13:47.128Z,3.10
2023-05-15T17:18:50.369Z,3.10
2023-05-15T17:23:54.317Z,2.90
2023-05-15T17:28:58.893Z,2.60
2023-05-15T17:34:02.139Z,3.60
2023-05-15T17:39:05.413Z,2.30
2023-05-15T17:44:10.318Z,2.33
2023-05-15T17:49:13.920Z,2.10
2023-05-15T17:54:17.396Z,2.27
2023-05-15T17:59:22.261Z,2.47
2023-05-15T18:04:25.651Z,2.50
2023-05-15T18:09:32.579Z,2.07
2023-05-15T18:14:38.780Z,2.33
2023-05-15T18:19:45.006Z,1.90
2023-05-15T18:24:48.528Z,2.27
2023-05-15T18:29:53.467Z,3.00
2023-05-15T18:34:56.727Z,2.90
2023-05-15T18:40:00.251Z,2.43
2023-05-15T18:45:05.629Z,2.60
2023-05-15T18:50:10.667Z,2.90
2023-05-15T18:55:14.872Z,3.10
2023-05-15T19:00:34.046Z,2.80
2023-05-15T19:05:43.886Z,2.27
2023-05-15T19:10:50.266Z,2.80
2023-05-15T19:15:55.715Z,2.60
2023-05-15T19:21:00.898Z,2.40
2023-05-15T19:26:04.285Z,2.80
2023-05-15T19:31:20.365Z,2.57
2023-05-15T19:36:34.321Z,2.73
2023-05-15T19:41:38.869Z,2.80
2023-05-15T19:46:45.198Z,2.60
2023-05-15T19:51:52.027Z,3.13
2023-05-15T19:56:58.603Z,2.83
2023-05-15T20:02:05.701Z,2.80
2023-05-15T20:07:08.896Z,2.87
2023-05-15T20:12:12.090Z,2.90
2023-05-15T20:17:18.770Z,2.60
2023-05-15T20:22:22.064Z,2.90
2023-05-15T20:27:25.372Z,3.30
2023-05-15T20:32:30.555Z,2.83
2023-05-15T20:37:34.894Z,3.30
2023-05-15T20:42:38.409Z,3.53
2023-05-15T20:47:43.141Z,2.90
2023-05-15T20:52:47.143Z,3.27
2023-05-15T20:57:50.957Z,3.50
2023-05-15T21:02:56.132Z,3.13
2023-05-15T21:07:59.573Z,2.77
2023-05-15T21:13:02.871Z,3.40
2023-05-15T21:18:07.886Z,2.93
2023-05-15T21:23:11.967Z,3.27
2023-05-15T21:28:15.650Z,3.23
2023-05-15T21:33:20.459Z,3.00
2023-05-15T21:38:23.738Z,2.80
2023-05-15T21:43:26.938Z,3.10
2023-05-15T21:48:31.634Z,3.20
2023-05-15T21:53:34.933Z,3.23
2023-05-15T21:58:38.198Z,3.57
2023-05-15T22:03:42.945Z,3.00
2023-05-15T22:08:46.244Z,3.90
2023-05-15T22:13:49.445Z,3.00
2023-05-15T22:18:55.123Z,3.80
2023-05-15T22:23:58.642Z,3.03
2023-05-15T22:29:01.867Z,3.37
2023-05-15T22:34:06.589Z,3.43
2023-05-15T22:39:10.131Z,3.10
2023-05-15T22:44:13.346Z,3.30
2023-05-15T22:49:23.605Z,3.30
2023-05-15T22:54:27.051Z,3.30
2023-05-15T22:59:30.333Z,3.10
2023-05-15T23:04:35.177Z,3.50
2023-05-15T23:09:38.385Z,3.67
2023-05-15T23:14:41.625Z,3.77
2023-05-15T23:19:46.635Z,3.50
2023-05-15T23:24:49.864Z,3.33
2023-05-15T23:29:53.063Z,3.90
2023-05-15T23:34:58.564Z,3.53
2023-05-15T23:40:01.976Z,3.37
2023-05-15T23:45:06.388Z,3.40
2023-05-15T23:50:11.530Z,3.10
2023-05-15T23:55:15.066Z,3.87
